Time;durP1;ratioP1;P1;durP2;ratioP2;P2;SDS_P1;SDS_P2;PMS_P1;PMS_P2;Temp;Humidity;BMP_temperature;BMP_pressure;BME280_temperature;BME280_humidity;BME280_pressure;Samples;Min_cycle;Max_cycle;Signal;HPM_P1;HPM_P2
2022/10/21 00:02:14;;;;;;;20.77;13.10;;;;;;;13.52;100.00;100751.91;5104689;28;20277;-58
2022/10/21 00:04:39;;;;;;;23.13;13.65;;;;;;;13.49;100.00;100739.69;5100081;28;20047;-58
2022/10/21 00:07:04;;;;;;;22.08;14.30;;;;;;;13.49;100.00;100738.88;5094045;28;20042;-57
2022/10/21 00:09:30;;;;;;;21.02;13.52;;;;;;;13.45;100.00;100735.59;5097298;28;20039;-56
2022/10/21 00:11:55;;;;;;;18.27;13.80;;;;;;;13.45;100.00;100737.44;5103913;28;20556;-57
2022/10/21 00:14:20;;;;;;;20.40;14.40;;;;;;;13.42;100.00;100738.59;5100238;28;20040;-58
2022/10/21 00:16:45;;;;;;;17.25;13.82;;;;;;;13.39;100.00;100732.66;5106278;28;20016;-57
2022/10/21 00:19:11;;;;;;;20.98;14.90;;;;;;;13.38;100.00;100723.81;5106446;28;20479;-58
2022/10/21 00:21:36;;;;;;;26.65;14.73;;;;;;;13.38;100.00;100731.00;5103096;28;20024;-58
2022/10/21 00:24:02;;;;;;;23.80;15.27;;;;;;;13.37;100.00;100716.78;5087991;28;20028;-57
2022/10/21 00:26:27;;;;;;;20.67;14.73;;;;;;;13.36;100.00;100717.78;5101106;28;20058;-57
2022/10/21 00:28:56;;;;;;;20.15;15.20;;;;;;;13.36;100.00;100715.13;5105797;28;20048;-56
2022/10/21 00:31:22;;;;;;;23.55;15.35;;;;;;;13.35;100.00;100707.25;5103403;28;20035;-56
2022/10/21 00:33:47;;;;;;;21.02;15.57;;;;;;;13.34;100.00;100714.44;5104711;28;20038;-56
2022/10/21 00:36:15;;;;;;;22.42;15.77;;;;;;;13.32;100.00;100713.69;5103856;28;20023;-58
2022/10/21 00:38:42;;;;;;;25.33;15.88;;;;;;;13.32;100.00;100714.56;5100310;28;20032;-57
2022/10/21 00:41:08;;;;;;;20.85;15.07;;;;;;;13.32;100.00;100714.56;5105654;28;20032;-57
2022/10/21 00:43:52;;;;;;;21.17;15.18;;;;;;;13.32;100.00;100711.91;5104959;28;20028;-57
2022/10/21 00:46:17;;;;;;;25.33;16.20;;;;;;;13.32;100.00;100721.69;5106881;28;20584;-57
2022/10/21 00:48:53;;;;;;;19.85;15.93;;;;;;;13.32;100.00;100717.22;5106537;28;20038;-57
2022/10/21 00:51:19;;;;;;;22.23;15.75;;;;;;;13.35;100.00;100717.94;5106970;28;20043;-57
2022/10/21 00:53:47;;;;;;;22.85;16.27;;;;;;;13.34;100.00;100709.09;5105457;28;20020;-56
2022/10/21 00:56:17;;;;;;;23.73;16.25;;;;;;;13.32;100.00;100701.22;5105655;28;20047;-56
2022/10/21 00:58:44;;;;;;;21.98;16.70;;;;;;;13.35;100.00;100697.41;5107367;28;20024;-56
2022/10/21 01:01:09;;;;;;;23.55;16.45;;;;;;;13.36;100.00;100699.13;5098570;28;20028;-56
2022/10/21 01:03:35;;;;;;;21.52;16.20;;;;;;;13.37;100.00;100698.13;5093598;28;20203;-56
2022/10/21 01:06:05;;;;;;;21.20;15.93;;;;;;;13.35;100.00;100691.25;5096894;28;20035;-57
2022/10/21 01:08:30;;;;;;;18.65;15.63;;;;;;;13.32;100.00;100685.22;5111204;28;20016;-57
2022/10/21 01:10:57;;;;;;;24.73;16.23;;;;;;;13.34;100.00;100687.75;5099950;28;20020;-57
2022/10/21 01:13:59;;;;;;;29.17;16.95;;;;;;;13.33;100.00;100684.22;5108632;28;20465;-57
2022/10/21 01:16:45;;;;;;;22.77;15.75;;;;;;;13.32;100.00;100679.00;5096453;28;20378;-57
2022/10/21 01:19:28;;;;;;;23.33;15.68;;;;;;;13.30;100.00;100676.47;5090745;28;20119;-56
2022/10/21 01:22:09;;;;;;;22.60;15.57;;;;;;;13.30;100.00;100676.47;5106571;28;20030;-56
2022/10/21 01:24:54;;;;;;;22.27;15.25;;;;;;;13.29;100.00;100663.28;5088290;28;20100;-57
2022/10/21 01:28:01;;;;;;;21.77;15.43;;;;;;;13.30;100.00;100657.78;5108476;28;20031;-57
2022/10/21 01:30:41;;;;;;;22.13;14.75;;;;;;;13.25;100.00;100649.38;5016696;28;20033;-57
2022/10/21 01:33:33;;;;;;;21.88;14.63;;;;;;;13.23;100.00;100656.66;5100342;28;20048;-57
2022/10/21 01:36:24;;;;;;;23.58;14.23;;;;;;;13.23;100.00;100651.34;5096365;28;20107;-56
2022/10/21 01:39:19;;;;;;;20.00;13.77;;;;;;;13.21;100.00;100649.81;5109356;28;20083;-56
2022/10/21 01:41:54;;;;;;;18.25;13.98;;;;;;;13.18;100.00;100645.56;5061916;28;20432;-56
2022/10/21 01:44:19;;;;;;;23.80;14.82;;;;;;;13.19;100.00;100636.59;5111068;28;20031;-56
2022/10/21 01:46:56;;;;;;;21.93;15.43;;;;;;;13.19;100.00;100636.59;5109918;28;20032;-57
2022/10/21 01:49:35;;;;;;;20.25;14.43;;;;;;;13.16;100.00;100634.22;5109744;28;20044;-57
2022/10/21 01:52:02;;;;;;;23.98;14.75;;;;;;;13.11;100.00;100629.28;5103597;28;20081;-56
2022/10/21 01:54:32;;;;;;;21.15;14.27;;;;;;;13.09;100.00;100627.72;5110577;28;20024;-57
2022/10/21 01:57:00;;;;;;;19.70;13.38;;;;;;;13.06;100.00;100623.53;5110133;28;20023;-56
2022/10/21 01:59:28;;;;;;;19.65;14.05;;;;;;;13.05;100.00;100616.50;5118780;28;20044;-55
2022/10/21 02:01:56;;;;;;;21.83;14.07;;;;;;;13.03;100.00;100612.31;5108746;28;20050;-56
2022/10/21 02:04:24;;;;;;;20.63;14.18;;;;;;;13.02;100.00;100613.28;5111431;28;20036;-56
2022/10/21 02:06:50;;;;;;;20.25;14.13;;;;;;;13.02;100.00;100614.13;5106677;28;20055;-56
2022/10/21 02:09:15;;;;;;;17.25;13.65;;;;;;;13.00;100.00;100618.75;5094306;28;20028;-56
2022/10/21 02:11:44;;;;;;;19.60;13.63;;;;;;;12.99;100.00;100611.75;5114579;28;20086;-56
2022/10/21 02:14:17;;;;;;;18.23;13.23;;;;;;;12.94;100.00;100609.50;5107779;28;20099;-55
2022/10/21 02:16:44;;;;;;;22.48;13.82;;;;;;;12.93;100.00;100604.31;5113182;28;20024;-56
2022/10/21 02:19:16;;;;;;;21.20;13.80;;;;;;;12.92;100.00;100598.13;5105217;28;20029;-55
2022/10/21 02:21:43;;;;;;;22.35;14.13;;;;;;;12.91;100.00;100595.63;5111404;28;20028;-56
2022/10/21 02:24:24;;;;;;;16.90;12.30;;;;;;;12.89;100.00;100597.56;5114350;28;20035;-56
2022/10/21 02:26:49;;;;;;;18.95;13.27;;;;;;;12.88;100.00;100591.38;5111862;28;20028;-56
2022/10/21 02:29:20;;;;;;;20.80;12.82;;;;;;;12.85;100.00;100596.16;5111623;28;20035;-56
2022/10/21 02:32:23;;;;;;;19.90;12.57;;;;;;;12.86;100.00;100603.19;5113130;28;20119;-57
2022/10/21 02:34:54;;;;;;;22.23;13.27;;;;;;;12.84;100.00;100613.13;5103584;28;20024;-57
2022/10/21 02:37:30;;;;;;;19.08;12.68;;;;;;;12.82;100.00;100604.44;5112432;28;20031;-57
2022/10/21 02:40:33;;;;;;;18.65;13.02;;;;;;;12.80;100.00;100603.72;5110124;28;20033;-56
2022/10/21 02:43:04;;;;;;;16.80;12.73;;;;;;;12.79;100.00;100597.56;5070525;28;20040;-56
2022/10/21 02:45:31;;;;;;;18.48;12.95;;;;;;;12.77;100.00;100602.16;5113593;28;20020;-57
2022/10/21 02:47:56;;;;;;;22.58;12.07;;;;;;;12.75;100.00;100594.31;5110332;28;20039;-56
2022/10/21 02:50:21;;;;;;;16.08;11.75;;;;;;;12.73;100.00;100588.28;5112554;28;20044;-56
2022/10/21 02:52:47;;;;;;;16.42;11.80;;;;;;;12.73;100.00;100582.94;5112978;28;20057;-57
2022/10/21 02:55:12;;;;;;;18.00;12.38;;;;;;;12.73;100.00;100580.28;5112749;28;20028;-57
2022/10/21 02:57:37;;;;;;;18.83;12.30;;;;;;;12.73;100.00;100582.13;5106937;28;20042;-57
2022/10/21 03:00:05;;;;;;;15.50;11.57;;;;;;;12.72;100.00;100589.28;5112942;28;20046;-56
2022/10/21 03:02:30;;;;;;;19.00;11.65;;;;;;;12.71;100.00;100584.09;5107539;28;20023;-57
2022/10/21 03:04:55;;;;;;;17.58;12.15;;;;;;;12.71;100.00;100584.09;5110851;28;20024;-56
2022/10/21 03:07:21;;;;;;;19.08;11.57;;;;;;;12.69;100.00;100586.88;5112957;28;20028;-57
2022/10/21 03:09:46;;;;;;;16.83;11.35;;;;;;;12.68;100.00;100587.84;5099759;28;20448;-57
2022/10/21 03:12:11;;;;;;;15.40;11.07;;;;;;;12.65;100.00;100577.47;5112087;28;20036;-56
2022/10/21 03:14:36;;;;;;;14.93;10.93;;;;;;;12.64;100.00;100583.78;5111713;28;20293;-56
2022/10/21 03:17:02;;;;;;;16.70;10.83;;;;;;;12.63;100.00;100571.44;5112765;28;20074;-57
2022/10/21 03:19:27;;;;;;;15.25;10.43;;;;;;;12.64;100.00;100577.59;5102992;28;20304;-56
2022/10/21 03:21:52;;;;;;;16.02;10.63;;;;;;;12.64;100.00;100583.78;5112475;28;20032;-56
2022/10/21 03:24:17;;;;;;;17.88;10.43;;;;;;;12.63;100.00;100587.41;5111496;28;20559;-56
2022/10/21 03:26:43;;;;;;;16.77;9.48;;;;;;;12.61;100.00;100589.38;5112814;28;20032;-56
2022/10/21 03:29:08;;;;;;;19.23;10.02;;;;;;;12.58;100.00;100597.66;5109796;28;20091;-56
2022/10/21 03:31:34;;;;;;;16.10;9.80;;;;;;;12.57;100.00;100591.50;5112706;28;20032;-56
2022/10/21 03:33:59;;;;;;;14.23;10.85;;;;;;;12.57;100.00;100590.63;5109860;28;20066;-56
2022/10/21 03:36:24;;;;;;;17.37;10.13;;;;;;;12.54;100.00;100589.09;5112674;28;20035;-55
2022/10/21 03:38:50;;;;;;;12.60;9.82;;;;;;;12.53;100.00;100587.41;5112879;28;20345;-57
2022/10/21 03:41:15;;;;;;;14.57;10.18;;;;;;;12.48;100.00;100568.31;5109402;28;20036;-57
2022/10/21 03:43:40;;;;;;;15.65;10.40;;;;;;;12.49;100.00;100580.69;5111723;28;20028;-56
2022/10/21 03:46:05;;;;;;;17.35;9.55;;;;;;;12.46;100.00;100574.78;5110849;28;20028;-55
2022/10/21 03:48:31;;;;;;;16.17;9.63;;;;;;;12.44;100.00;100580.25;5110616;28;20038;-58
2022/10/21 03:50:56;;;;;;;12.93;9.82;;;;;;;12.42;100.00;100576.84;5108910;28;20028;-57
2022/10/21 03:53:22;;;;;;;18.35;9.60;;;;;;;12.40;100.00;100576.16;5108659;28;20028;-57
2022/10/21 03:55:50;;;;;;;13.40;9.23;;;;;;;12.39;100.00;100575.31;5105240;28;20029;-57
2022/10/21 03:58:15;;;;;;;15.82;9.50;;;;;;;12.39;100.00;100571.81;5109114;28;20024;-56
2022/10/21 04:00:41;;;;;;;13.30;10.48;;;;;;;12.37;100.00;100566.63;5111298;28;20028;-57
2022/10/21 04:03:06;;;;;;;14.50;9.57;;;;;;;12.35;100.00;100573.06;5110398;28;20020;-57
2022/10/21 04:05:31;;;;;;;14.98;9.18;;;;;;;12.34;100.00;100572.22;5112028;28;20024;-57
2022/10/21 04:07:57;;;;;;;11.00;8.50;;;;;;;12.32;100.00;100579.50;5107133;28;20125;-56
2022/10/21 04:10:22;;;;;;;11.27;8.45;;;;;;;12.31;100.00;100576.97;5093837;28;20123;-56
2022/10/21 04:12:47;;;;;;;15.18;9.32;;;;;;;12.30;100.00;100576.13;5099425;28;20046;-57
2022/10/21 04:15:13;;;;;;;17.67;9.20;;;;;;;12.29;100.00;100576.25;5109297;28;20510;-57
2022/10/21 04:17:39;;;;;;;12.65;8.05;;;;;;;12.27;100.00;100581.72;5106210;28;20305;-56
2022/10/21 04:20:05;;;;;;;12.13;8.82;;;;;;;12.25;100.00;100580.19;5109101;28;20025;-57
2022/10/21 04:22:31;;;;;;;12.00;8.68;;;;;;;12.24;100.00;100576.69;5107735;28;20032;-55
2022/10/21 04:24:56;;;;;;;12.55;7.90;;;;;;;12.21;100.00;100574.28;5104152;28;20046;-56
2022/10/21 04:27:21;;;;;;;12.38;8.52;;;;;;;12.17;100.00;100568.38;5108074;28;20039;-58
2022/10/21 04:29:46;;;;;;;12.98;7.35;;;;;;;12.17;100.00;100575.50;5107943;28;20035;-57
2022/10/21 04:32:12;;;;;;;12.20;6.85;;;;;;;12.14;100.00;100576.63;5104631;28;20123;-58
2022/10/21 04:34:37;;;;;;;10.93;6.97;;;;;;;12.10;100.00;100585.84;5108394;28;20498;-56
2022/10/21 04:37:02;;;;;;;13.15;7.75;;;;;;;12.09;100.00;100583.31;5107079;28;20052;-57
2022/10/21 04:39:28;;;;;;;12.65;7.30;;;;;;;12.06;100.00;100581.78;5106883;28;20032;-57
2022/10/21 04:41:54;;;;;;;12.30;7.03;;;;;;;12.06;100.00;100586.25;5105371;28;20039;-57
2022/10/21 04:44:20;;;;;;;11.63;7.43;;;;;;;12.03;100.00;100587.38;5102810;28;20029;-57
2022/10/21 04:46:45;;;;;;;10.43;6.35;;;;;;;12.02;100.00;100585.69;5104036;28;20032;-56
2022/10/21 04:49:10;;;;;;;14.00;6.95;;;;;;;12.00;100.00;100599.13;5107243;28;20048;-57
2022/10/21 04:51:36;;;;;;;16.73;8.05;;;;;;;11.99;100.00;100591.25;5106826;28;20035;-56
2022/10/21 04:54:01;;;;;;;12.85;7.05;;;;;;;11.98;100.00;100584.28;5097344;28;20153;-56
2022/10/21 04:56:26;;;;;;;8.38;6.22;;;;;;;11.95;100.00;100577.38;5108353;28;20036;-56
2022/10/21 04:58:51;;;;;;;11.25;6.50;;;;;;;11.93;100.00;100571.34;5108824;28;20489;-55
2022/10/21 05:01:17;;;;;;;11.00;6.50;;;;;;;11.93;100.00;100571.34;5107264;28;20036;-56
2022/10/21 05:03:43;;;;;;;12.95;6.68;;;;;;;11.91;100.00;100578.63;5108312;28;20288;-55
2022/10/21 05:06:08;;;;;;;10.00;5.90;;;;;;;11.90;100.00;100570.75;5108524;28;20160;-56
2022/10/21 05:08:33;;;;;;;12.00;5.97;;;;;;;11.90;100.00;100574.25;5100658;28;20034;-57
2022/10/21 05:11:00;;;;;;;7.95;5.55;;;;;;;11.88;100.00;100572.72;5102502;28;20024;-55
2022/10/21 05:13:27;;;;;;;11.63;5.70;;;;;;;11.88;100.00;100580.69;5105374;28;20035;-56
2022/10/21 05:15:55;;;;;;;12.75;5.90;;;;;;;11.87;100.00;100582.50;5102879;28;20024;-56
2022/10/21 05:18:21;;;;;;;10.88;6.00;;;;;;;11.87;100.00;100577.16;5108966;28;20039;-58
2022/10/21 05:20:53;;;;;;;10.45;6.07;;;;;;;11.87;100.00;100577.16;5109087;28;20008;-57
2022/10/21 05:23:18;;;;;;;7.07;5.38;;;;;;;11.86;100.00;100570.19;5108155;28;20028;-58
2022/10/21 05:25:45;;;;;;;9.13;5.18;;;;;;;11.84;100.00;100572.97;5105594;28;20050;-55
2022/10/21 05:28:10;;;;;;;9.10;5.72;;;;;;;11.85;100.00;100566.66;5106353;28;20035;-56
2022/10/21 05:30:36;;;;;;;9.20;5.97;;;;;;;11.83;100.00;100559.78;5107543;28;20036;-56
2022/10/21 05:33:01;;;;;;;8.13;5.65;;;;;;;11.84;100.00;100562.31;5107167;28;20028;-57
2022/10/21 05:35:26;;;;;;;8.95;5.68;;;;;;;11.84;100.00;100559.66;5106795;28;20039;-56
2022/10/21 05:37:52;;;;;;;9.68;6.00;;;;;;;11.83;100.00;100547.31;5105687;28;20043;-56
2022/10/21 05:40:17;;;;;;;6.43;5.25;;;;;;;11.84;100.00;100545.53;5101763;28;20529;-56
2022/10/21 05:42:43;;;;;;;17.13;6.03;;;;;;;11.83;100.00;100543.84;5106420;28;20016;-56
2022/10/21 05:45:09;;;;;;;14.63;6.07;;;;;;;11.83;100.00;100546.50;5104264;28;20035;-57
2022/10/21 05:47:34;;;;;;;10.90;5.78;;;;;;;11.82;100.00;100537.69;5108647;28;20039;-56
2022/10/21 05:49:59;;;;;;;10.23;5.63;;;;;;;11.81;100.00;100535.97;5100114;28;20048;-57
2022/10/21 05:52:25;;;;;;;9.07;5.38;;;;;;;11.81;100.00;100528.00;5108224;28;20103;-56
2022/10/21 05:54:50;;;;;;;7.75;5.70;;;;;;;11.82;100.00;100531.50;5108871;28;20028;-55
2022/10/21 05:57:15;;;;;;;9.90;5.93;;;;;;;11.81;100.00;100530.66;5108265;28;20063;-57
2022/10/21 05:59:40;;;;;;;14.10;5.88;;;;;;;11.81;100.00;100541.31;5102609;28;20298;-56
2022/10/21 06:02:06;;;;;;;7.07;5.20;;;;;;;11.79;100.00;100529.09;5107175;28;20474;-56
2022/10/21 06:04:31;;;;;;;10.98;6.20;;;;;;;11.79;100.00;100537.94;5102232;28;20036;-57
2022/10/21 06:06:56;;;;;;;9.75;5.20;;;;;;;11.78;100.00;100538.06;5103755;28;20499;-55
2022/10/21 06:09:22;;;;;;;9.68;5.80;;;;;;;11.79;100.00;100540.59;5085218;28;20014;-56
2022/10/21 06:11:47;;;;;;;10.00;5.55;;;;;;;11.79;100.00;100537.06;5097487;28;20032;-56
2022/10/21 06:14:12;;;;;;;8.30;5.75;;;;;;;11.79;100.00;100537.94;5094504;28;20044;-58
2022/10/21 06:16:38;;;;;;;11.40;5.25;;;;;;;11.79;100.00;100535.28;5096549;28;20016;-57
2022/10/21 06:19:03;;;;;;;8.03;4.83;;;;;;;11.80;100.00;100539.59;5091768;28;20125;-56
2022/10/21 06:21:28;;;;;;;8.98;5.30;;;;;;;11.82;100.00;100534.16;5070176;28;20294;-56
2022/10/21 06:23:54;;;;;;;10.23;4.82;;;;;;;11.83;100.00;100526.03;5092540;28;20527;-57
2022/10/21 06:26:20;;;;;;;7.93;4.82;;;;;;;11.83;100.00;100531.34;5092416;28;20501;-57
2022/10/21 06:28:45;;;;;;;10.23;5.13;;;;;;;11.81;100.00;100533.31;5083116;28;20535;-57
2022/10/21 06:31:13;;;;;;;11.00;4.72;;;;;;;11.80;100.00;100530.78;5078712;28;20401;-57
2022/10/21 06:33:38;;;;;;;9.00;4.47;;;;;;;11.83;100.00;100531.34;5078801;28;20039;-58
2022/10/21 06:36:04;;;;;;;11.88;4.50;;;;;;;11.83;100.00;100538.50;5081410;28;20044;-57
2022/10/21 06:38:31;;;;;;;7.28;4.40;;;;;;;11.86;100.00;100543.56;5081896;28;20150;-57
2022/10/21 06:41:01;;;;;;;8.50;4.97;;;;;;;11.87;100.00;100545.22;5081126;28;20518;-56
2022/10/21 06:43:27;;;;;;;8.57;5.35;;;;;;;11.88;100.00;100544.28;5083095;28;20036;-56
2022/10/21 06:45:52;;;;;;;11.70;4.78;;;;;;;11.91;100.00;100560.00;5085603;28;20051;-57
2022/10/21 06:48:17;;;;;;;10.98;4.82;;;;;;;11.93;100.00;100557.22;5083628;28;20114;-57
2022/10/21 06:50:42;;;;;;;10.98;4.65;;;;;;;11.93;100.00;100560.72;5086237;28;20054;-57
2022/10/21 06:53:08;;;;;;;8.95;4.43;;;;;;;11.96;100.00;100562.28;5084959;28;20040;-56
2022/10/21 06:55:33;;;;;;;8.10;4.32;;;;;;;11.99;100.00;100570.84;5088009;28;20028;-56
2022/10/21 06:57:59;;;;;;;7.65;4.18;;;;;;;12.01;100.00;100568.88;5092449;28;20067;-57
2022/10/21 07:00:24;;;;;;;8.35;4.05;;;;;;;12.05;100.00;100581.91;5096851;28;20028;-57
2022/10/21 07:02:49;;;;;;;9.75;4.20;;;;;;;12.07;100.00;100579.97;5096374;28;20028;-57
2022/10/21 07:05:15;;;;;;;10.30;4.30;;;;;;;12.09;100.00;100588.66;5092538;28;20375;-57
2022/10/21 07:07:41;;;;;;;6.45;4.53;;;;;;;12.12;100.00;100594.53;5091210;28;20124;-56
2022/10/21 07:10:07;;;;;;;11.77;4.30;;;;;;;12.14;100.00;100595.28;5081623;28;20037;-57
2022/10/21 07:12:32;;;;;;;10.55;4.22;;;;;;;12.19;100.00;100601.03;5087573;28;20071;-57
2022/10/21 07:14:58;;;;;;;7.72;4.15;;;;;;;12.24;100.00;100605.09;5085235;28;20016;-57
2022/10/21 07:17:23;;;;;;;10.27;4.25;;;;;;;12.28;100.00;100612.69;5084652;28;20036;-57
2022/10/21 07:19:49;;;;;;;9.32;3.90;;;;;;;12.32;100.00;100603.47;5081062;28;20431;-57
2022/10/21 07:22:14;;;;;;;9.25;4.40;;;;;;;12.36;100.00;100599.56;5082862;28;20508;-57
2022/10/21 07:24:40;;;;;;;9.43;4.05;;;;;;;12.38;100.00;100608.25;5083211;28;20033;-55
2022/10/21 07:27:05;;;;;;;6.70;3.70;;;;;;;12.42;100.00;100603.47;5084380;28;20047;-57
2022/10/21 07:29:31;;;;;;;7.93;3.90;;;;;;;12.45;100.00;100602.38;5095656;28;20085;-57
2022/10/21 07:31:56;;;;;;;6.50;3.80;;;;;;;12.48;100.00;100602.13;5089559;28;20093;-57
2022/10/21 07:34:22;;;;;;;10.23;4.25;;;;;;;12.51;100.00;100604.50;5098403;28;20103;-56
2022/10/21 07:36:51;;;;;;;6.38;4.22;;;;;;;12.56;100.00;100610.28;5094196;28;20381;-56
2022/10/21 07:39:17;;;;;;;;;;;;;;;12.61;100.00;100610.72;5105394;28;20092;-55
2022/10/21 07:41:46;;;;;;;8.02;3.95;;;;;;;12.63;100.00;100622.06;5101284;28;19908;-56
2022/10/21 07:44:11;;;;;;;6.85;4.00;;;;;;;12.66;100.00;100618.28;5109293;28;20034;-56
2022/10/21 07:46:38;;;;;;;9.13;4.05;;;;;;;12.68;100.00;100627.81;5114785;28;20020;-56
2022/10/21 07:49:04;;;;;;;7.20;3.92;;;;;;;12.72;100.00;100623.06;5113959;28;20044;-56
2022/10/21 07:51:30;;;;;;;9.30;4.15;;;;;;;12.74;100.00;100629.13;5114687;28;20061;-56
2022/10/21 07:53:56;;;;;;;9.52;4.28;;;;;;;12.76;100.00;100627.97;5116781;28;20050;-57
2022/10/21 07:56:28;;;;;;;7.25;4.50;;;;;;;12.81;100.00;100635.56;5108525;28;20024;-57
2022/10/21 07:58:53;;;;;;;7.30;3.90;;;;;;;12.84;100.00;100631.78;5106697;28;20036;-58
2022/10/21 08:01:20;;;;;;;9.95;4.50;;;;;;;12.87;100.00;100629.69;5100602;28;20096;-55
2022/10/21 08:03:46;;;;;;;7.35;4.28;;;;;;;12.89;100.00;100629.53;5106758;28;20015;-58
2022/10/21 08:06:13;;;;;;;9.25;4.57;;;;;;;12.90;100.00;100625.91;5102948;28;20015;-57
2022/10/21 08:08:39;;;;;;;10.30;4.82;;;;;;;12.91;100.00;100625.75;5102313;28;20025;-56
2022/10/21 08:11:06;;;;;;;9.98;4.30;;;;;;;12.91;100.00;100616.94;5101610;28;20100;-57
2022/10/21 08:13:33;;;;;;;11.98;5.22;;;;;;;12.92;100.00;100613.28;5112978;28;20500;-57
2022/10/21 08:15:59;;;;;;;9.40;4.78;;;;;;;12.95;100.00;100615.66;5115095;28;20011;-56
2022/10/21 08:18:25;;;;;;;9.82;4.93;;;;;;;12.96;100.00;100617.38;5117829;28;20088;-57
2022/10/21 08:20:51;;;;;;;8.13;4.70;;;;;;;12.97;100.00;100611.03;5090928;28;20020;-56
2022/10/21 08:23:18;;;;;;;6.85;4.65;;;;;;;12.97;100.00;100616.34;5116887;28;20035;-57
2022/10/21 08:25:52;;;;;;;8.63;4.90;;;;;;;12.96;100.00;100625.34;5113147;28;20029;-56
2022/10/21 08:28:18;;;;;;;12.57;4.47;;;;;;;13.00;100.00;100639.25;5116097;28;20121;-56
2022/10/21 08:30:44;;;;;;;9.32;5.07;;;;;;;13.00;100.00;100637.41;5116617;28;20009;-56
2022/10/21 08:33:10;;;;;;;9.65;4.80;;;;;;;13.01;100.00;100631.13;5117134;28;20053;-58
2022/10/21 08:35:37;;;;;;;10.25;4.70;;;;;;;13.01;100.00;100636.44;5117658;28;20043;-57
2022/10/21 08:38:02;;;;;;;9.35;5.20;;;;;;;13.02;100.00;100634.63;5117204;28;20039;-57
2022/10/21 08:40:33;;;;;;;7.30;4.93;;;;;;;13.03;100.00;100634.47;5103570;28;20028;-55
2022/10/21 08:43:06;;;;;;;10.48;5.00;;;;;;;13.03;100.00;100658.47;5104278;28;20327;-56
2022/10/21 08:45:40;;;;;;;9.70;5.30;;;;;;;13.05;100.00;100653.84;5106492;28;20106;-56
2022/10/21 08:48:12;;;;;;;11.05;5.50;;;;;;;13.05;100.00;100645.84;5105974;28;20028;-55
2022/10/21 08:50:43;;;;;;;12.90;5.18;;;;;;;13.06;100.00;100650.19;5102070;28;20036;-57
2022/10/21 08:53:19;;;;;;;8.57;5.20;;;;;;;13.08;100.00;100647.41;5101914;28;20032;-54
2022/10/21 08:55:45;;;;;;;7.85;5.15;;;;;;;13.08;100.00;100650.91;5100173;28;20028;-57
2022/10/21 08:58:14;;;;;;;9.30;5.03;;;;;;;13.09;100.00;100665.94;5100711;28;20339;-57
2022/10/21 09:01:01;;;;;;;10.00;5.40;;;;;;;13.13;100.00;100667.31;5096996;28;20028;-57
2022/10/21 09:03:54;;;;;;;15.40;5.30;;;;;;;13.16;100.00;100674.22;5095110;28;20104;-57
2022/10/21 09:06:28;;;;;;;9.13;5.07;;;;;;;13.17;100.00;100664.38;5094430;28;20036;-57
2022/10/21 09:09:44;;;;;;;14.20;5.80;;;;;;;13.21;100.00;100665.81;5081304;28;20032;-56
2022/10/21 09:12:32;;;;;;;11.30;5.65;;;;;;;13.21;100.00;100674.63;5004768;28;20037;-57
2022/10/21 09:15:23;;;;;;;10.43;4.85;;;;;;;13.23;100.00;100669.16;5010939;28;20037;-55
2022/10/21 09:18:00;;;;;;;7.82;4.22;;;;;;;13.24;100.00;100654.84;5095607;28;20034;-54
2022/10/21 09:20:33;;;;;;;8.45;4.15;;;;;;;13.25;100.00;100644.03;5117207;28;20019;-54
2022/10/21 09:22:58;;;;;;;5.60;2.75;;;;;;;13.30;100.00;100652.44;5111812;28;20099;-55
2022/10/21 09:25:37;;;;;;;6.73;2.77;;;;;;;13.37;100.00;100651.94;5094625;28;20043;-56
2022/10/21 09:28:09;;;;;;;;;;;;;;;13.42;100.00;100652.34;5095016;28;20030;-57
2022/10/21 09:30:35;;;;;;;5.05;2.63;;;;;;;13.54;100.00;100656.56;5093672;28;20392;-54
2022/10/21 09:33:01;;;;;;;5.63;2.40;;;;;;;13.62;100.00;100653.19;5086524;28;20040;-54
2022/10/21 09:35:42;;;;;;;5.70;2.55;;;;;;;13.68;100.00;100649.94;5083032;28;20053;-56
2022/10/21 09:38:18;;;;;;;7.32;2.70;;;;;;;13.74;100.00;100654.72;5086689;28;20140;-56
2022/10/21 09:40:45;;;;;;;3.85;2.22;;;;;;;13.82;100.00;100640.66;5093357;28;20092;-57
2022/10/21 09:43:23;;;;;;;4.85;2.70;;;;;;;13.86;100.00;100642.88;5092115;28;20032;-57
2022/10/21 09:45:49;;;;;;;6.63;2.53;;;;;;;13.93;100.00;100635.16;5094145;28;20036;-57
2022/10/21 09:48:17;;;;;;;8.02;2.78;;;;;;;13.97;100.00;100647.22;5091014;28;20059;-56
2022/10/21 09:50:45;;;;;;;7.07;2.88;;;;;;;14.04;100.00;100639.50;5084712;28;20344;-57
2022/10/21 09:53:17;;;;;;;6.70;3.55;;;;;;;14.09;100.00;100645.22;5078309;28;20430;-54
2022/10/21 09:55:50;;;;;;;8.57;3.20;;;;;;;14.16;100.00;100646.31;5075211;28;20020;-57
2022/10/21 09:58:27;;;;;;;7.70;4.03;;;;;;;14.23;100.00;100658.09;5076059;28;20016;-57
2022/10/21 10:00:53;;;;;;;9.02;3.88;;;;;;;14.32;100.00;100648.38;5082071;28;20124;-57
2022/10/21 10:03:39;;;;;;;9.95;4.15;;;;;;;14.37;100.00;100653.25;5081373;28;20027;-57
2022/10/21 10:06:05;;;;;;;9.13;3.72;;;;;;;14.43;100.00;100650.00;5082299;28;20485;-58
2022/10/21 10:08:38;;;;;;;11.43;4.88;;;;;;;14.49;100.00;100648.56;5084399;28;20033;-57
2022/10/21 10:11:09;;;;;;;11.32;4.65;;;;;;;14.54;100.00;100646.31;5075499;28;20036;-57
2022/10/21 10:13:35;;;;;;;13.93;4.75;;;;;;;14.59;100.00;100652.09;5090817;28;20028;-57
2022/10/21 10:16:21;;;;;;;14.30;5.20;;;;;;;14.66;100.00;100657.69;5087570;28;20047;-58
2022/10/21 10:18:47;;;;;;;11.18;5.15;;;;;;;14.71;100.00;100666.09;5090118;28;20024;-58
2022/10/21 10:21:17;;;;;;;11.73;6.28;;;;;;;14.76;100.00;100664.66;5089750;28;20040;-58
2022/10/21 10:23:52;;;;;;;10.50;5.72;;;;;;;14.84;100.00;100660.38;5088663;28;20031;-57
2022/10/21 10:26:25;;;;;;;9.63;5.70;;;;;;;14.95;100.00;100662.84;5082726;28;20115;-57
2022/10/21 10:28:57;;;;;;;9.77;5.88;;;;;;;15.06;100.00;100665.31;5096454;28;20461;-57
2022/10/21 10:31:25;;;;;;;10.20;5.68;;;;;;;15.20;100.00;100663.09;5073624;28;20047;-58
2022/10/21 10:33:55;;;;;;;9.57;5.68;;;;;;;15.28;100.00;100661.34;5091531;28;20059;-57
2022/10/21 10:36:27;;;;;;;8.57;5.40;;;;;;;15.36;100.00;100664.09;5099595;28;20032;-58
2022/10/21 10:38:54;;;;;;;15.95;6.32;;;;;;;15.44;100.00;100662.50;5092478;28;20501;-57
2022/10/21 10:41:27;;;;;;;12.80;7.00;;;;;;;15.49;100.00;100669.06;5089901;28;20044;-58
2022/10/21 10:43:54;;;;;;;13.20;7.00;;;;;;;15.60;100.00;100673.34;5085621;28;20024;-58
2022/10/21 10:46:28;;;;;;;13.55;6.90;;;;;;;15.65;100.00;100667.53;5082713;28;20032;-57
2022/10/21 10:48:55;;;;;;;12.77;5.97;;;;;;;15.72;100.00;100672.09;5094238;28;20437;-58
2022/10/21 10:51:33;;;;;;;12.35;5.53;;;;;;;15.80;100.00;100666.00;5092268;28;20047;-58
2022/10/21 10:54:20;;;;;;;11.30;5.70;;;;;;;15.89;100.00;100675.78;5092157;28;20058;-58
2022/10/21 10:56:57;;;;;;;9.65;5.55;;;;;;;16.01;100.00;100664.81;5089417;28;20044;-58
2022/10/21 10:59:22;;;;;;;9.43;5.70;;;;;;;16.15;100.00;100666.06;5093631;28;20020;-58
2022/10/21 11:02:09;;;;;;;10.97;5.63;;;;;;;16.23;100.00;100663.44;5092941;28;20058;-58
2022/10/21 11:04:37;;;;;;;11.07;5.50;;;;;;;16.30;100.00;100655.59;5088804;28;20290;-58
2022/10/21 11:07:38;;;;;;;8.77;5.18;;;;;;;16.37;100.00;100653.94;5092533;28;20040;-56
2022/10/21 11:10:12;;;;;;;11.90;5.82;;;;;;;16.44;100.00;100645.13;5092758;28;20035;-59
2022/10/21 11:12:37;;;;;;;11.55;5.75;;;;;;;16.56;100.00;100639.47;5086540;28;20103;-58
2022/10/21 11:15:12;;;;;;;9.40;5.68;;;;;;;16.67;100.00;100639.19;5083261;28;20115;-58
2022/10/21 11:17:44;;;;;;;10.13;5.97;;;;;;;16.74;100.00;100639.38;5087010;28;20035;-58
2022/10/21 11:20:26;;;;;;;11.95;5.75;;;;;;;16.77;100.00;100637.19;5093512;28;20044;-60